sensor_id;sensor_type;location;lat;lon;timestamp;temperature;humidity
44305;DHT22;30019;50.576;8.568;2023-03-14T00:01:57;10.90;99.90
44305;DHT22;30019;50.576;8.568;2023-03-14T00:04:23;10.90;99.90
44305;DHT22;30019;50.576;8.568;2023-03-14T00:06:48;10.90;99.90
44305;DHT22;30019;50.576;8.568;2023-03-14T00:09:15;10.90;99.90
44305;DHT22;30019;50.576;8.568;2023-03-14T00:11:41;10.90;99.90
44305;DHT22;30019;50.576;8.568;2023-03-14T00:14:07;10.90;99.90
44305;DHT22;30019;50.576;8.568;2023-03-14T00:16:32;10.90;99.90
44305;DHT22;30019;50.576;8.568;2023-03-14T00:18:59;10.90;99.90
44305;DHT22;30019;50.576;8.568;2023-03-14T00:21:25;10.90;99.90
44305;DHT22;30019;50.576;8.568;2023-03-14T00:23:51;10.90;99.90
44305;DHT22;30019;50.576;8.568;2023-03-14T00:26:19;10.90;99.90
44305;DHT22;30019;50.576;8.568;2023-03-14T00:28:45;10.90;99.90
44305;DHT22;30019;50.576;8.568;2023-03-14T00:31:14;10.90;99.90
44305;DHT22;30019;50.576;8.568;2023-03-14T00:33:40;10.80;99.90
44305;DHT22;30019;50.576;8.568;2023-03-14T00:36:12;10.80;99.90
44305;DHT22;30019;50.576;8.568;2023-03-14T00:38:39;10.90;99.90
44305;DHT22;30019;50.576;8.568;2023-03-14T00:41:07;10.80;99.90
44305;DHT22;30019;50.576;8.568;2023-03-14T00:43:33;10.80;99.90
44305;DHT22;30019;50.576;8.568;2023-03-14T00:45:59;10.80;99.90
44305;DHT22;30019;50.576;8.568;2023-03-14T00:48:24;10.80;99.90
44305;DHT22;30019;50.576;8.568;2023-03-14T00:50:50;10.80;99.90
44305;DHT22;30019;50.576;8.568;2023-03-14T00:53:16;10.80;99.90
44305;DHT22;30019;50.576;8.568;2023-03-14T00:55:42;10.80;99.90
44305;DHT22;30019;50.576;8.568;2023-03-14T00:58:10;10.70;99.90
44305;DHT22;30019;50.576;8.568;2023-03-14T01:00:36;10.60;99.90
44305;DHT22;30019;50.576;8.568;2023-03-14T01:03:02;10.50;99.90
44305;DHT22;30019;50.576;8.568;2023-03-14T01:05:28;10.50;99.90
44305;DHT22;30019;50.576;8.568;2023-03-14T01:07:55;10.50;99.90
44305;DHT22;30019;50.576;8.568;2023-03-14T01:10:20;10.50;99.90
44305;DHT22;30019;50.576;8.568;2023-03-14T01:12:46;10.50;99.90
44305;DHT22;30019;50.576;8.568;2023-03-14T01:15:12;10.40;99.90
44305;DHT22;30019;50.576;8.568;2023-03-14T01:17:37;10.40;99.90
44305;DHT22;30019;50.576;8.568;2023-03-14T01:20:05;10.50;99.90
44305;DHT22;30019;50.576;8.568;2023-03-14T01:22:31;10.50;99.90
44305;DHT22;30019;50.576;8.568;2023-03-14T01:24:57;10.40;99.90
44305;DHT22;30019;50.576;8.568;2023-03-14T01:27:22;10.50;99.90
44305;DHT22;30019;50.576;8.568;2023-03-14T01:29:48;10.50;99.90
44305;DHT22;30019;50.576;8.568;2023-03-14T01:32:13;10.60;99.90
44305;DHT22;30019;50.576;8.568;2023-03-14T01:34:39;10.60;99.90
44305;DHT22;30019;50.576;8.568;2023-03-14T01:37:05;10.50;99.90
44305;DHT22;30019;50.576;8.568;2023-03-14T01:39:32;10.30;99.90
44305;DHT22;30019;50.576;8.568;2023-03-14T01:41:59;10.20;99.90
44305;DHT22;30019;50.576;8.568;2023-03-14T01:44:25;10.10;99.90
44305;DHT22;30019;50.576;8.568;2023-03-14T01:46:50;9.90;99.90
44305;DHT22;30019;50.576;8.568;2023-03-14T01:49:29;9.80;99.90
44305;DHT22;30019;50.576;8.568;2023-03-14T01:52:01;9.70;99.90
44305;DHT22;30019;50.576;8.568;2023-03-14T01:54:34;9.60;99.90
44305;DHT22;30019;50.576;8.568;2023-03-14T01:57:14;9.60;99.90
44305;DHT22;30019;50.576;8.568;2023-03-14T01:59:45;9.60;99.90
44305;DHT22;30019;50.576;8.568;2023-03-14T02:02:12;9.60;99.90
44305;DHT22;30019;50.576;8.568;2023-03-14T02:04:40;9.60;99.90
44305;DHT22;30019;50.576;8.568;2023-03-14T02:08:01;9.60;99.90
44305;DHT22;30019;50.576;8.568;2023-03-14T02:10:03;9.60;99.90
44305;DHT22;30019;50.576;8.568;2023-03-14T02:12:29;9.60;99.90
44305;DHT22;30019;50.576;8.568;2023-03-14T02:14:55;9.60;99.90
44305;DHT22;30019;50.576;8.568;2023-03-14T02:17:22;9.60;99.90
44305;DHT22;30019;50.576;8.568;2023-03-14T02:22:45;9.70;99.90
44305;DHT22;30019;50.576;8.568;2023-03-14T02:28:09;9.80;99.90
44305;DHT22;30019;50.576;8.568;2023-03-14T02:30:35;9.90;99.90
44305;DHT22;30019;50.576;8.568;2023-03-14T02:33:08;10.00;99.90
44305;DHT22;30019;50.576;8.568;2023-03-14T02:35:40;10.00;99.90
44305;DHT22;30019;50.576;8.568;2023-03-14T02:40:31;10.00;99.90
44305;DHT22;30019;50.576;8.568;2023-03-14T02:42:57;10.00;99.90
44305;DHT22;30019;50.576;8.568;2023-03-14T02:45:28;10.00;99.90
44305;DHT22;30019;50.576;8.568;2023-03-14T02:47:59;10.00;99.90
44305;DHT22;30019;50.576;8.568;2023-03-14T02:50:29;10.00;99.90
44305;DHT22;30019;50.576;8.568;2023-03-14T02:52:56;10.00;99.90
44305;DHT22;30019;50.576;8.568;2023-03-14T02:55:22;10.00;99.90
44305;DHT22;30019;50.576;8.568;2023-03-14T02:57:48;10.00;99.90
44305;DHT22;30019;50.576;8.568;2023-03-14T03:00:14;10.00;99.90
44305;DHT22;30019;50.576;8.568;2023-03-14T03:02:40;10.00;99.90
44305;DHT22;30019;50.576;8.568;2023-03-14T03:05:06;10.00;99.90
44305;DHT22;30019;50.576;8.568;2023-03-14T03:07:31;10.00;99.90
44305;DHT22;30019;50.576;8.568;2023-03-14T03:09:57;10.00;99.90
44305;DHT22;30019;50.576;8.568;2023-03-14T03:12:22;9.90;99.90
44305;DHT22;30019;50.576;8.568;2023-03-14T03:14:48;10.00;99.90
44305;DHT22;30019;50.576;8.568;2023-03-14T03:17:14;10.00;99.90
44305;DHT22;30019;50.576;8.568;2023-03-14T03:19:40;10.00;99.90
44305;DHT22;30019;50.576;8.568;2023-03-14T03:22:06;10.00;99.90
44305;DHT22;30019;50.576;8.568;2023-03-14T03:24:31;10.00;99.90
44305;DHT22;30019;50.576;8.568;2023-03-14T03:26:57;10.00;99.90
44305;DHT22;30019;50.576;8.568;2023-03-14T03:29:23;10.00;99.90
44305;DHT22;30019;50.576;8.568;2023-03-14T03:31:48;9.90;99.90
44305;DHT22;30019;50.576;8.568;2023-03-14T03:34:14;9.90;99.90
44305;DHT22;30019;50.576;8.568;2023-03-14T03:36:40;9.90;99.90
44305;DHT22;30019;50.576;8.568;2023-03-14T03:39:06;9.90;99.90
44305;DHT22;30019;50.576;8.568;2023-03-14T03:41:32;10.00;99.90
44305;DHT22;30019;50.576;8.568;2023-03-14T03:43:57;9.90;99.90
44305;DHT22;30019;50.576;8.568;2023-03-14T03:46:23;9.90;99.90
44305;DHT22;30019;50.576;8.568;2023-03-14T03:48:57;9.80;99.90
44305;DHT22;30019;50.576;8.568;2023-03-14T03:51:23;9.70;99.90
44305;DHT22;30019;50.576;8.568;2023-03-14T03:53:49;9.80;99.90
44305;DHT22;30019;50.576;8.568;2023-03-14T03:56:14;9.70;99.90
44305;DHT22;30019;50.576;8.568;2023-03-14T03:58:40;9.70;99.90
44305;DHT22;30019;50.576;8.568;2023-03-14T04:01:08;9.70;99.90
44305;DHT22;30019;50.576;8.568;2023-03-14T04:03:34;9.70;99.90
44305;DHT22;30019;50.576;8.568;2023-03-14T04:06:02;9.70;99.90
44305;DHT22;30019;50.576;8.568;2023-03-14T04:08:28;9.80;99.90
44305;DHT22;30019;50.576;8.568;2023-03-14T04:10:58;9.80;99.90
44305;DHT22;30019;50.576;8.568;2023-03-14T04:13:25;9.80;99.90
44305;DHT22;30019;50.576;8.568;2023-03-14T04:15:51;9.70;99.90
44305;DHT22;30019;50.576;8.568;2023-03-14T04:18:16;9.70;99.90
44305;DHT22;30019;50.576;8.568;2023-03-14T04:20:42;9.60;99.90
44305;DHT22;30019;50.576;8.568;2023-03-14T04:23:08;9.50;99.90
44305;DHT22;30019;50.576;8.568;2023-03-14T04:25:34;9.50;99.90
44305;DHT22;30019;50.576;8.568;2023-03-14T04:27:59;9.40;99.90
44305;DHT22;30019;50.576;8.568;2023-03-14T04:30:25;9.40;99.90
44305;DHT22;30019;50.576;8.568;2023-03-14T04:32:52;9.40;99.90
44305;DHT22;30019;50.576;8.568;2023-03-14T04:35:18;9.50;99.90
44305;DHT22;30019;50.576;8.568;2023-03-14T04:37:44;9.50;99.90
44305;DHT22;30019;50.576;8.568;2023-03-14T04:40:10;9.60;99.90
44305;DHT22;30019;50.576;8.568;2023-03-14T04:42:36;9.60;99.90
44305;DHT22;30019;50.576;8.568;2023-03-14T04:45:02;9.60;99.90
44305;DHT22;30019;50.576;8.568;2023-03-14T04:47:28;9.50;99.90
44305;DHT22;30019;50.576;8.568;2023-03-14T04:49:53;9.50;99.90
44305;DHT22;30019;50.576;8.568;2023-03-14T04:52:19;9.60;99.90
44305;DHT22;30019;50.576;8.568;2023-03-14T04:54:45;9.60;99.90
44305;DHT22;30019;50.576;8.568;2023-03-14T04:57:10;9.70;99.90
44305;DHT22;30019;50.576;8.568;2023-03-14T04:59:36;9.70;99.90
44305;DHT22;30019;50.576;8.568;2023-03-14T05:02:01;9.70;99.90
44305;DHT22;30019;50.576;8.568;2023-03-14T05:04:27;9.80;99.90
44305;DHT22;30019;50.576;8.568;2023-03-14T05:06:52;9.80;99.90
44305;DHT22;30019;50.576;8.568;2023-03-14T05:09:18;9.90;99.90
44305;DHT22;30019;50.576;8.568;2023-03-14T05:11:44;9.90;99.90
44305;DHT22;30019;50.576;8.568;2023-03-14T05:14:09;9.90;99.90
44305;DHT22;30019;50.576;8.568;2023-03-14T05:16:35;9.90;99.90
44305;DHT22;30019;50.576;8.568;2023-03-14T05:19:00;9.90;99.90
44305;DHT22;30019;50.576;8.568;2023-03-14T05:21:27;9.90;99.90
44305;DHT22;30019;50.576;8.568;2023-03-14T05:23:52;9.90;99.90
44305;DHT22;30019;50.576;8.568;2023-03-14T05:26:18;10.00;99.90
44305;DHT22;30019;50.576;8.568;2023-03-14T05:28:45;10.00;99.90
44305;DHT22;30019;50.576;8.568;2023-03-14T05:31:10;10.00;99.90
44305;DHT22;30019;50.576;8.568;2023-03-14T05:33:36;10.00;99.90
44305;DHT22;30019;50.576;8.568;2023-03-14T05:36:02;10.00;99.90
44305;DHT22;30019;50.576;8.568;2023-03-14T05:38:28;10.10;99.90
44305;DHT22;30019;50.576;8.568;2023-03-14T05:40:53;10.00;99.90
44305;DHT22;30019;50.576;8.568;2023-03-14T05:43:19;10.00;99.90
44305;DHT22;30019;50.576;8.568;2023-03-14T05:45:44;10.00;99.90
44305;DHT22;30019;50.576;8.568;2023-03-14T05:48:10;10.00;99.90
44305;DHT22;30019;50.576;8.568;2023-03-14T05:50:36;10.00;99.90
44305;DHT22;30019;50.576;8.568;2023-03-14T05:53:02;10.00;99.90
44305;DHT22;30019;50.576;8.568;2023-03-14T05:55:28;10.00;99.90
44305;DHT22;30019;50.576;8.568;2023-03-14T05:57:54;10.00;99.90
44305;DHT22;30019;50.576;8.568;2023-03-14T06:00:20;10.00;99.90
44305;DHT22;30019;50.576;8.568;2023-03-14T06:02:45;10.00;99.90
44305;DHT22;30019;50.576;8.568;2023-03-14T06:05:11;10.10;99.90
44305;DHT22;30019;50.576;8.568;2023-03-14T06:07:37;10.00;99.90
44305;DHT22;30019;50.576;8.568;2023-03-14T06:10:03;10.10;99.90
44305;DHT22;30019;50.576;8.568;2023-03-14T06:12:29;10.10;99.90
44305;DHT22;30019;50.576;8.568;2023-03-14T06:14:54;10.20;99.90
44305;DHT22;30019;50.576;8.568;2023-03-14T06:17:20;10.20;99.90
44305;DHT22;30019;50.576;8.568;2023-03-14T06:19:46;10.20;99.90
44305;DHT22;30019;50.576;8.568;2023-03-14T06:22:11;10.30;99.90
44305;DHT22;30019;50.576;8.568;2023-03-14T06:24:37;10.30;99.90
44305;DHT22;30019;50.576;8.568;2023-03-14T06:27:03;10.20;99.90
44305;DHT22;30019;50.576;8.568;2023-03-14T06:29:29;10.20;99.90
44305;DHT22;30019;50.576;8.568;2023-03-14T06:31:55;10.10;99.90
44305;DHT22;30019;50.576;8.568;2023-03-14T06:34:21;10.00;99.90
44305;DHT22;30019;50.576;8.568;2023-03-14T06:36:46;9.90;99.90
44305;DHT22;30019;50.576;8.568;2023-03-14T06:39:12;9.90;99.90
44305;DHT22;30019;50.576;8.568;2023-03-14T06:41:38;9.90;99.90
44305;DHT22;30019;50.576;8.568;2023-03-14T06:44:04;10.00;99.90
44305;DHT22;30019;50.576;8.568;2023-03-14T06:46:29;10.00;99.90
44305;DHT22;30019;50.576;8.568;2023-03-14T06:48:55;9.90;99.90
44305;DHT22;30019;50.576;8.568;2023-03-14T06:51:21;10.00;99.90
44305;DHT22;30019;50.576;8.568;2023-03-14T06:53:46;10.00;99.90
44305;DHT22;30019;50.576;8.568;2023-03-14T06:56:12;10.00;99.90
44305;DHT22;30019;50.576;8.568;2023-03-14T06:58:38;10.00;99.90
44305;DHT22;30019;50.576;8.568;2023-03-14T07:01:03;9.90;99.90
44305;DHT22;30019;50.576;8.568;2023-03-14T07:03:29;10.00;99.90
44305;DHT22;30019;50.576;8.568;2023-03-14T07:05:55;10.00;99.90
44305;DHT22;30019;50.576;8.568;2023-03-14T07:08:20;10.00;99.90
44305;DHT22;30019;50.576;8.568;2023-03-14T07:10:46;10.10;99.90
44305;DHT22;30019;50.576;8.568;2023-03-14T07:13:11;10.10;99.90
44305;DHT22;30019;50.576;8.568;2023-03-14T07:15:37;10.20;99.90
44305;DHT22;30019;50.576;8.568;2023-03-14T07:18:03;10.20;99.90
44305;DHT22;30019;50.576;8.568;2023-03-14T07:20:28;10.20;99.90
44305;DHT22;30019;50.576;8.568;2023-03-14T07:22:54;10.20;99.90
44305;DHT22;30019;50.576;8.568;2023-03-14T07:25:20;10.20;99.90
44305;DHT22;30019;50.576;8.568;2023-03-14T07:27:46;10.20;99.90
44305;DHT22;30019;50.576;8.568;2023-03-14T07:30:14;10.20;99.90
44305;DHT22;30019;50.576;8.568;2023-03-14T07:32:40;10.20;99.90
44305;DHT22;30019;50.576;8.568;2023-03-14T07:35:06;10.20;99.90
44305;DHT22;30019;50.576;8.568;2023-03-14T07:37:32;10.20;99.90
44305;DHT22;30019;50.576;8.568;2023-03-14T07:39:57;10.30;99.90
44305;DHT22;30019;50.576;8.568;2023-03-14T07:42:23;10.40;99.90
44305;DHT22;30019;50.576;8.568;2023-03-14T07:44:49;10.40;99.90
44305;DHT22;30019;50.576;8.568;2023-03-14T07:47:14;10.40;99.90
44305;DHT22;30019;50.576;8.568;2023-03-14T07:49:40;10.40;99.90
44305;DHT22;30019;50.576;8.568;2023-03-14T07:52:05;10.40;99.90
44305;DHT22;30019;50.576;8.568;2023-03-14T07:54:31;10.40;99.90
44305;DHT22;30019;50.576;8.568;2023-03-14T07:56:56;10.30;99.90
44305;DHT22;30019;50.576;8.568;2023-03-14T07:59:26;10.30;99.90
44305;DHT22;30019;50.576;8.568;2023-03-14T08:01:51;10.30;99.90
44305;DHT22;30019;50.576;8.568;2023-03-14T08:04:17;10.30;99.90
44305;DHT22;30019;50.576;8.568;2023-03-14T08:06:42;10.40;99.90
44305;DHT22;30019;50.576;8.568;2023-03-14T08:09:08;10.40;99.90
44305;DHT22;30019;50.576;8.568;2023-03-14T08:11:34;10.50;99.90
44305;DHT22;30019;50.576;8.568;2023-03-14T08:13:59;10.60;99.90
44305;DHT22;30019;50.576;8.568;2023-03-14T08:16:25;10.70;99.90
44305;DHT22;30019;50.576;8.568;2023-03-14T08:18:51;10.60;99.90
44305;DHT22;30019;50.576;8.568;2023-03-14T08:21:16;10.60;99.90
44305;DHT22;30019;50.576;8.568;2023-03-14T08:23:42;10.60;99.90
44305;DHT22;30019;50.576;8.568;2023-03-14T08:26:07;10.70;99.90
44305;DHT22;30019;50.576;8.568;2023-03-14T08:28:33;10.70;99.90
44305;DHT22;30019;50.576;8.568;2023-03-14T08:31:00;10.70;99.90
44305;DHT22;30019;50.576;8.568;2023-03-14T08:33:27;10.80;99.90
44305;DHT22;30019;50.576;8.568;2023-03-14T08:35:54;10.80;99.90
44305;DHT22;30019;50.576;8.568;2023-03-14T08:38:19;10.80;99.90
44305;DHT22;30019;50.576;8.568;2023-03-14T08:40:45;10.90;99.90
44305;DHT22;30019;50.576;8.568;2023-03-14T08:43:11;10.90;99.90
44305;DHT22;30019;50.576;8.568;2023-03-14T08:45:36;11.00;99.90
44305;DHT22;30019;50.576;8.568;2023-03-14T08:48:02;11.00;99.90
44305;DHT22;30019;50.576;8.568;2023-03-14T08:50:28;11.10;99.90
44305;DHT22;30019;50.576;8.568;2023-03-14T08:52:54;11.10;99.90
44305;DHT22;30019;50.576;8.568;2023-03-14T08:55:19;11.20;99.90
44305;DHT22;30019;50.576;8.568;2023-03-14T08:57:46;11.10;99.90
44305;DHT22;30019;50.576;8.568;2023-03-14T09:00:12;11.20;99.90
44305;DHT22;30019;50.576;8.568;2023-03-14T09:02:41;11.10;99.90
44305;DHT22;30019;50.576;8.568;2023-03-14T09:05:07;11.10;99.90
44305;DHT22;30019;50.576;8.568;2023-03-14T09:07:33;11.20;99.90
44305;DHT22;30019;50.576;8.568;2023-03-14T09:09:59;11.10;99.90
44305;DHT22;30019;50.576;8.568;2023-03-14T09:12:24;11.10;99.90
44305;DHT22;30019;50.576;8.568;2023-03-14T09:14:50;11.20;99.90
44305;DHT22;30019;50.576;8.568;2023-03-14T09:17:15;11.20;99.90
44305;DHT22;30019;50.576;8.568;2023-03-14T09:19:41;11.40;99.90
44305;DHT22;30019;50.576;8.568;2023-03-14T09:22:06;11.50;99.90
44305;DHT22;30019;50.576;8.568;2023-03-14T09:24:32;11.60;99.90
44305;DHT22;30019;50.576;8.568;2023-03-14T09:26:58;11.50;99.90
44305;DHT22;30019;50.576;8.568;2023-03-14T09:29:23;11.60;99.90
44305;DHT22;30019;50.576;8.568;2023-03-14T09:31:50;11.60;99.90
44305;DHT22;30019;50.576;8.568;2023-03-14T09:34:16;11.70;99.90
44305;DHT22;30019;50.576;8.568;2023-03-14T09:36:41;11.80;99.90
44305;DHT22;30019;50.576;8.568;2023-03-14T09:39:10;11.70;99.90
44305;DHT22;30019;50.576;8.568;2023-03-14T09:41:38;11.60;99.90
44305;DHT22;30019;50.576;8.568;2023-03-14T09:44:10;11.50;99.90
44305;DHT22;30019;50.576;8.568;2023-03-14T09:46:38;11.50;99.90
44305;DHT22;30019;50.576;8.568;2023-03-14T09:49:32;11.40;99.90
44305;DHT22;30019;50.576;8.568;2023-03-14T09:52:01;11.50;99.90
44305;DHT22;30019;50.576;8.568;2023-03-14T09:54:32;11.60;99.90
44305;DHT22;30019;50.576;8.568;2023-03-14T09:57:00;11.70;99.90
44305;DHT22;30019;50.576;8.568;2023-03-14T09:59:27;12.00;99.90
44305;DHT22;30019;50.576;8.568;2023-03-14T10:01:54;12.10;99.90
44305;DHT22;30019;50.576;8.568;2023-03-14T10:04:22;12.00;99.90
44305;DHT22;30019;50.576;8.568;2023-03-14T10:06:50;12.20;99.90
44305;DHT22;30019;50.576;8.568;2023-03-14T10:09:21;12.20;99.90
44305;DHT22;30019;50.576;8.568;2023-03-14T10:11:57;12.10;99.90
44305;DHT22;30019;50.576;8.568;2023-03-14T10:14:36;11.90;99.90
44305;DHT22;30019;50.576;8.568;2023-03-14T10:17:11;11.80;99.90
44305;DHT22;30019;50.576;8.568;2023-03-14T10:19:45;11.50;99.90
44305;DHT22;30019;50.576;8.568;2023-03-14T10:22:16;11.50;99.90
44305;DHT22;30019;50.576;8.568;2023-03-14T10:24:50;11.40;99.90
44305;DHT22;30019;50.576;8.568;2023-03-14T10:27:20;11.40;99.90
44305;DHT22;30019;50.576;8.568;2023-03-14T10:29:54;11.50;99.90
44305;DHT22;30019;50.576;8.568;2023-03-14T10:32:21;11.60;99.90
44305;DHT22;30019;50.576;8.568;2023-03-14T10:35:05;11.80;99.90
44305;DHT22;30019;50.576;8.568;2023-03-14T10:37:31;12.00;99.90
44305;DHT22;30019;50.576;8.568;2023-03-14T10:40:00;12.00;99.90
44305;DHT22;30019;50.576;8.568;2023-03-14T10:42:32;12.10;99.90
44305;DHT22;30019;50.576;8.568;2023-03-14T10:47:51;12.00;99.90
44305;DHT22;30019;50.576;8.568;2023-03-14T10:50:31;11.80;99.90
44305;DHT22;30019;50.576;8.568;2023-03-14T10:53:01;11.60;99.90
44305;DHT22;30019;50.576;8.568;2023-03-14T10:55:43;11.40;99.90
44305;DHT22;30019;50.576;8.568;2023-03-14T10:58:24;11.30;99.90
44305;DHT22;30019;50.576;8.568;2023-03-14T11:03:54;11.30;99.90
44305;DHT22;30019;50.576;8.568;2023-03-14T11:09:22;11.30;99.90
44305;DHT22;30019;50.576;8.568;2023-03-14T11:11:50;11.30;99.90
44305;DHT22;30019;50.576;8.568;2023-03-14T11:14:27;11.40;99.90
44305;DHT22;30019;50.576;8.568;2023-03-14T11:17:14;11.30;99.90
44305;DHT22;30019;50.576;8.568;2023-03-14T11:22:32;11.10;99.90
44305;DHT22;30019;50.576;8.568;2023-03-14T11:28:00;11.00;99.90
44305;DHT22;30019;50.576;8.568;2023-03-14T11:30:35;10.90;99.90
44305;DHT22;30019;50.576;8.568;2023-03-14T11:33:18;10.80;99.90
44305;DHT22;30019;50.576;8.568;2023-03-14T11:36:08;10.80;99.90
44305;DHT22;30019;50.576;8.568;2023-03-14T11:38:48;10.60;99.90
44305;DHT22;30019;50.576;8.568;2023-03-14T11:41:25;10.50;99.90
44305;DHT22;30019;50.576;8.568;2023-03-14T11:43:56;10.20;99.90
44305;DHT22;30019;50.576;8.568;2023-03-14T11:46:26;9.80;99.90
44305;DHT22;30019;50.576;8.568;2023-03-14T11:49:01;9.50;99.90
44305;DHT22;30019;50.576;8.568;2023-03-14T11:51:34;9.40;99.90
44305;DHT22;30019;50.576;8.568;2023-03-14T11:54:28;9.30;99.90
44305;DHT22;30019;50.576;8.568;2023-03-14T11:57:11;9.10;99.90
44305;DHT22;30019;50.576;8.568;2023-03-14T12:04:59;9.00;99.90
44305;DHT22;30019;50.576;8.568;2023-03-14T12:07:40;9.00;99.90
44305;DHT22;30019;50.576;8.568;2023-03-14T12:10:08;9.00;99.90
44305;DHT22;30019;50.576;8.568;2023-03-14T12:12:34;9.00;99.90
44305;DHT22;30019;50.576;8.568;2023-03-14T12:15:02;9.00;99.90
44305;DHT22;30019;50.576;8.568;2023-03-14T12:17:39;8.80;99.90
44305;DHT22;30019;50.576;8.568;2023-03-14T12:22:57;8.50;99.90
44305;DHT22;30019;50.576;8.568;2023-03-14T12:25:29;8.30;99.90
44305;DHT22;30019;50.576;8.568;2023-03-14T12:30:36;8.30;99.90
44305;DHT22;30019;50.576;8.568;2023-03-14T12:35:47;8.20;99.90
44305;DHT22;30019;50.576;8.568;2023-03-14T12:41:36;8.20;99.90
44305;DHT22;30019;50.576;8.568;2023-03-14T12:46:58;8.50;99.90
44305;DHT22;30019;50.576;8.568;2023-03-14T12:49:35;8.70;99.90
44305;DHT22;30019;50.576;8.568;2023-03-14T12:52:22;8.90;99.90
44305;DHT22;30019;50.576;8.568;2023-03-14T12:55:18;9.00;99.90
44305;DHT22;30019;50.576;8.568;2023-03-14T12:57:57;9.10;99.90
44305;DHT22;30019;50.576;8.568;2023-03-14T13:00:39;9.00;99.90
44305;DHT22;30019;50.576;8.568;2023-03-14T13:03:20;8.90;99.90
44305;DHT22;30019;50.576;8.568;2023-03-14T13:06:01;8.80;99.90
44305;DHT22;30019;50.576;8.568;2023-03-14T13:08:44;8.80;99.90
44305;DHT22;30019;50.576;8.568;2023-03-14T13:11:15;8.70;99.90
44305;DHT22;30019;50.576;8.568;2023-03-14T13:13:45;8.70;99.90
44305;DHT22;30019;50.576;8.568;2023-03-14T13:16:18;8.70;99.90
44305;DHT22;30019;50.576;8.568;2023-03-14T13:19:03;8.80;99.90
44305;DHT22;30019;50.576;8.568;2023-03-14T13:21:35;8.80;99.90
44305;DHT22;30019;50.576;8.568;2023-03-14T13:26:40;9.10;99.90
44305;DHT22;30019;50.576;8.568;2023-03-14T13:31:50;9.60;99.90
44305;DHT22;30019;50.576;8.568;2023-03-14T13:34:16;9.30;99.90
44305;DHT22;30019;50.576;8.568;2023-03-14T13:36:42;9.00;99.90
44305;DHT22;30019;50.576;8.568;2023-03-14T13:39:18;8.80;99.90
44305;DHT22;30019;50.576;8.568;2023-03-14T13:41:45;8.40;99.90
44305;DHT22;30019;50.576;8.568;2023-03-14T13:44:38;8.20;99.90
44305;DHT22;30019;50.576;8.568;2023-03-14T13:47:09;7.90;99.90
44305;DHT22;30019;50.576;8.568;2023-03-14T13:49:37;7.90;99.90
44305;DHT22;30019;50.576;8.568;2023-03-14T13:52:04;7.90;99.90
44305;DHT22;30019;50.576;8.568;2023-03-14T13:54:46;8.00;99.90
44305;DHT22;30019;50.576;8.568;2023-03-14T13:57:11;7.90;99.90
44305;DHT22;30019;50.576;8.568;2023-03-14T13:59:37;8.00;99.90
44305;DHT22;30019;50.576;8.568;2023-03-14T14:02:23;8.10;99.90
44305;DHT22;30019;50.576;8.568;2023-03-14T14:04:50;8.10;99.90
44305;DHT22;30019;50.576;8.568;2023-03-14T14:07:16;8.00;99.90
44305;DHT22;30019;50.576;8.568;2023-03-14T14:09:50;8.10;99.90
44305;DHT22;30019;50.576;8.568;2023-03-14T14:12:35;8.20;99.90
44305;DHT22;30019;50.576;8.568;2023-03-14T14:15:14;8.30;99.90
44305;DHT22;30019;50.576;8.568;2023-03-14T14:17:46;8.20;99.90
44305;DHT22;30019;50.576;8.568;2023-03-14T14:22:45;8.00;99.90
44305;DHT22;30019;50.576;8.568;2023-03-14T14:25:15;8.10;99.90
44305;DHT22;30019;50.576;8.568;2023-03-14T14:27:47;8.20;99.90
44305;DHT22;30019;50.576;8.568;2023-03-14T14:32:49;7.90;99.90
44305;DHT22;30019;50.576;8.568;2023-03-14T14:35:30;7.90;99.90
44305;DHT22;30019;50.576;8.568;2023-03-14T14:37:55;7.90;99.90
44305;DHT22;30019;50.576;8.568;2023-03-14T14:40:29;7.80;99.90
44305;DHT22;30019;50.576;8.568;2023-03-14T14:43:02;7.70;99.90
44305;DHT22;30019;50.576;8.568;2023-03-14T14:45:28;7.70;99.90
44305;DHT22;30019;50.576;8.568;2023-03-14T14:47:58;7.40;99.90
44305;DHT22;30019;50.576;8.568;2023-03-14T14:50:30;7.20;99.90
44305;DHT22;30019;50.576;8.568;2023-03-14T14:52:58;7.00;99.90
44305;DHT22;30019;50.576;8.568;2023-03-14T14:55:32;7.00;99.90
44305;DHT22;30019;50.576;8.568;2023-03-14T14:58:22;7.00;99.90
44305;DHT22;30019;50.576;8.568;2023-03-14T15:03:18;7.20;99.90
44305;DHT22;30019;50.576;8.568;2023-03-14T15:05:44;7.30;99.90
44305;DHT22;30019;50.576;8.568;2023-03-14T15:08:11;7.30;99.90
44305;DHT22;30019;50.576;8.568;2023-03-14T15:10:37;7.20;99.90
44305;DHT22;30019;50.576;8.568;2023-03-14T15:13:02;7.10;99.90
44305;DHT22;30019;50.576;8.568;2023-03-14T15:15:28;7.10;99.90
44305;DHT22;30019;50.576;8.568;2023-03-14T15:17:54;7.10;99.90
44305;DHT22;30019;50.576;8.568;2023-03-14T15:20:20;7.10;99.90
44305;DHT22;30019;50.576;8.568;2023-03-14T15:22:49;7.00;99.90
44305;DHT22;30019;50.576;8.568;2023-03-14T15:25:15;7.10;99.90
44305;DHT22;30019;50.576;8.568;2023-03-14T15:27:41;7.10;99.90
44305;DHT22;30019;50.576;8.568;2023-03-14T15:30:12;7.10;99.90
44305;DHT22;30019;50.576;8.568;2023-03-14T15:32:38;7.10;99.90
44305;DHT22;30019;50.576;8.568;2023-03-14T15:35:04;7.00;99.90
44305;DHT22;30019;50.576;8.568;2023-03-14T15:37:30;7.00;99.90
44305;DHT22;30019;50.576;8.568;2023-03-14T15:39:56;7.00;99.90
44305;DHT22;30019;50.576;8.568;2023-03-14T15:42:23;7.00;99.90
44305;DHT22;30019;50.576;8.568;2023-03-14T15:44:49;7.10;99.90
44305;DHT22;30019;50.576;8.568;2023-03-14T15:47:14;7.10;99.90
44305;DHT22;30019;50.576;8.568;2023-03-14T15:49:40;7.20;99.90
44305;DHT22;30019;50.576;8.568;2023-03-14T15:52:06;7.20;99.90
44305;DHT22;30019;50.576;8.568;2023-03-14T15:54:33;7.10;99.90
44305;DHT22;30019;50.576;8.568;2023-03-14T15:56:59;7.10;99.90
44305;DHT22;30019;50.576;8.568;2023-03-14T15:59:24;7.10;99.90
44305;DHT22;30019;50.576;8.568;2023-03-14T16:01:50;7.00;99.90
44305;DHT22;30019;50.576;8.568;2023-03-14T16:04:16;7.00;99.90
44305;DHT22;30019;50.576;8.568;2023-03-14T16:06:43;6.70;99.90
44305;DHT22;30019;50.576;8.568;2023-03-14T16:09:10;6.50;99.90
44305;DHT22;30019;50.576;8.568;2023-03-14T16:11:36;6.20;99.90
44305;DHT22;30019;50.576;8.568;2023-03-14T16:14:02;5.90;99.90
44305;DHT22;30019;50.576;8.568;2023-03-14T16:16:27;5.60;99.90
44305;DHT22;30019;50.576;8.568;2023-03-14T16:18:53;5.40;99.90
44305;DHT22;30019;50.576;8.568;2023-03-14T16:21:19;5.30;99.90
44305;DHT22;30019;50.576;8.568;2023-03-14T16:23:45;5.30;99.90
44305;DHT22;30019;50.576;8.568;2023-03-14T16:26:14;5.30;99.90
44305;DHT22;30019;50.576;8.568;2023-03-14T16:28:43;5.20;99.90
44305;DHT22;30019;50.576;8.568;2023-03-14T16:31:11;5.30;99.90
44305;DHT22;30019;50.576;8.568;2023-03-14T16:33:38;5.30;99.90
44305;DHT22;30019;50.576;8.568;2023-03-14T16:36:06;5.30;99.90
44305;DHT22;30019;50.576;8.568;2023-03-14T16:38:33;5.30;99.90
44305;DHT22;30019;50.576;8.568;2023-03-14T16:41:01;5.30;99.90